Time;durP1;ratioP1;P1;durP2;ratioP2;P2;SDS_P1;SDS_P2;PMS_P1;PMS_P2;Temp;Humidity;BMP_temperature;BMP_pressure;BME280_temperature;BME280_humidity;BME280_pressure;Samples;Min_cycle;Max_cycle;Signal;HPM_P1;HPM_P2
2022/10/11 00:00:55;;;;;;;1.67;1.47;;;13.70;99.90;;;;;;5030096;28;20629;-81
2022/10/11 00:03:22;;;;;;;1.30;1.20;;;13.70;99.90;;;;;;5025165;28;20635;-81
2022/10/11 00:05:49;;;;;;;1.93;1.70;;;13.70;99.90;;;;;;5008945;28;20626;-81
2022/10/11 00:08:16;;;;;;;1.90;1.80;;;13.60;99.90;;;;;;5008846;28;20659;-81
2022/10/11 00:10:43;;;;;;;2.37;2.27;;;13.60;99.90;;;;;;5008829;28;20659;-82
2022/10/11 00:13:11;;;;;;;1.80;1.70;;;13.50;99.90;;;;;;5008983;28;20682;-81
2022/10/11 00:15:40;;;;;;;1.70;1.53;;;13.40;99.90;;;;;;5010471;28;20620;-82
2022/10/11 00:18:07;;;;;;;2.00;1.90;;;13.30;99.90;;;;;;5027597;28;20630;-82
2022/10/11 00:20:34;;;;;;;2.47;2.20;;;13.30;99.90;;;;;;5027905;28;21097;-82
2022/10/11 00:26:22;;;;;;;2.93;2.70;;;13.20;99.90;;;;;;5025819;28;20611;-81
2022/10/11 00:28:52;;;;;;;1.80;1.70;;;13.10;99.90;;;;;;5026878;28;20659;-82
2022/10/11 00:31:19;;;;;;;1.57;1.47;;;13.20;99.90;;;;;;5014523;28;20632;-81
2022/10/11 00:33:46;;;;;;;2.30;1.60;;;13.20;99.90;;;;;;5008513;28;20634;-81
2022/10/11 00:36:15;;;;;;;1.90;1.77;;;13.10;99.90;;;;;;5007734;28;20613;-82
2022/10/11 00:38:42;;;;;;;1.47;1.37;;;13.10;99.90;;;;;;5007455;28;21313;-81
2022/10/11 00:41:09;;;;;;;2.20;2.03;;;12.90;99.90;;;;;;5026128;28;20670;-81
2022/10/11 00:43:36;;;;;;;1.97;1.70;;;13.00;99.90;;;;;;5027755;28;20633;-81
2022/10/11 00:46:27;;;;;;;2.07;1.87;;;12.80;99.90;;;;;;5027894;28;20623;-82
2022/10/11 00:48:58;;;;;;;2.30;2.13;;;12.90;99.90;;;;;;5026945;28;20659;-81
2022/10/11 00:51:35;;;;;;;1.67;1.50;;;12.90;99.90;;;;;;5028828;28;20626;-82
2022/10/11 00:54:03;;;;;;;1.77;1.67;;;13.00;99.90;;;;;;5031690;28;21168;-82
2022/10/11 00:56:32;;;;;;;2.20;2.07;;;12.90;99.90;;;;;;5032179;28;20615;-82
2022/10/11 00:59:02;;;;;;;2.20;1.87;;;10.80;99.90;;;;;;5031425;28;20623;-81
2022/10/11 01:01:30;;;;;;;3.27;2.57;;;12.80;99.90;;;;;;5031913;28;20994;-81
2022/10/11 01:03:57;;;;;;;2.60;1.90;;;12.80;99.90;;;;;;5031157;28;20637;-81
2022/10/11 01:06:24;;;;;;;3.33;1.73;;;12.80;99.90;;;;;;5031323;28;20951;-81
2022/10/11 01:08:52;;;;;;;2.43;1.80;;;12.80;99.90;;;;;;5029815;28;20661;-81
2022/10/11 01:11:22;;;;;;;1.63;1.53;;;12.80;99.90;;;;;;5031725;28;20621;-81
2022/10/11 01:14:03;;;;;;;1.67;1.57;;;12.80;99.90;;;;;;5031757;28;20623;-81
2022/10/11 01:16:36;;;;;;;1.43;1.33;;;12.70;99.90;;;;;;5031139;28;20622;-82
2022/10/11 01:19:32;;;;;;;2.63;1.97;;;12.70;99.90;;;;;;5031271;28;20641;-82
2022/10/11 01:22:11;;;;;;;2.43;1.97;;;12.60;99.90;;;;;;5031455;28;20610;-81
2022/10/11 01:25:09;;;;;;;3.83;1.67;;;12.50;99.90;;;;;;5031483;28;20615;-81
2022/10/11 01:27:47;;;;;;;1.40;1.30;;;12.50;99.90;;;;;;5030745;28;20652;-81
2022/10/11 01:30:23;;;;;;;5.43;1.10;;;12.50;99.90;;;;;;5030880;28;20761;-81
2022/10/11 01:33:12;;;;;;;0.93;0.93;;;12.40;99.90;;;;;;5031228;28;21164;-81
2022/10/11 01:35:45;;;;;;;1.40;1.30;;;12.40;99.90;;;;;;5030472;28;20669;-82
2022/10/11 01:38:21;;;;;;;1.43;1.33;;;12.40;99.90;;;;;;5030459;28;20611;-81
2022/10/11 01:40:52;;;;;;;1.80;1.63;;;12.40;99.90;;;;;;5031070;28;20633;-81
2022/10/11 01:43:22;;;;;;;1.50;1.13;;;12.40;99.90;;;;;;5031081;28;20606;-81
2022/10/11 01:45:53;;;;;;;1.70;1.60;;;12.40;99.90;;;;;;5030685;28;20718;-81
2022/10/11 01:48:20;;;;;;;1.33;1.23;;;12.40;99.90;;;;;;5030210;28;20649;-81
2022/10/11 01:50:51;;;;;;;2.80;2.13;;;12.40;99.90;;;;;;5030994;28;20619;-81
2022/10/11 01:53:51;;;;;;;2.00;1.80;;;12.30;99.90;;;;;;5030833;28;21119;-81
2022/10/11 01:56:33;;;;;;;1.83;1.43;;;12.30;99.90;;;;;;5017528;28;20631;-81
2022/10/11 01:59:20;;;;;;;1.77;1.67;;;12.40;99.90;;;;;;5030003;28;20623;-81
2022/10/11 02:01:58;;;;;;;2.23;2.03;;;12.40;99.90;;;;;;5030728;28;20606;-81
2022/10/11 02:04:31;;;;;;;1.67;1.57;;;12.20;99.90;;;;;;5029250;28;20633;-81
2022/10/11 02:07:05;;;;;;;3.70;2.30;;;12.30;99.90;;;;;;5030344;28;20944;-81
2022/10/11 02:09:39;;;;;;;1.77;1.67;;;12.40;99.90;;;;;;5030396;28;20758;-81
2022/10/11 02:12:10;;;;;;;2.30;2.20;;;12.30;99.90;;;;;;5030745;28;20726;-81
2022/10/11 02:14:41;;;;;;;2.00;1.67;;;12.40;99.90;;;;;;5030790;28;20619;-81
2022/10/11 02:17:13;;;;;;;1.77;1.67;;;12.40;99.90;;;;;;5029127;28;20618;-81
2022/10/11 02:19:44;;;;;;;2.73;1.30;;;12.40;99.90;;;;;;5030282;28;20615;-81
2022/10/11 02:22:15;;;;;;;1.70;1.60;;;12.30;99.90;;;;;;5030525;28;20626;-81
2022/10/11 02:24:49;;;;;;;1.60;1.50;;;12.30;99.90;;;;;;5030107;28;20619;-81
2022/10/11 02:27:20;;;;;;;3.40;2.13;;;12.20;99.90;;;;;;5029625;28;20610;-81
2022/10/11 02:29:49;;;;;;;2.63;2.30;;;12.20;99.90;;;;;;5030152;28;20639;-81
2022/10/11 02:32:18;;;;;;;2.43;2.20;;;12.20;99.90;;;;;;5029822;28;20614;-81
2022/10/11 02:34:50;;;;;;;2.10;2.00;;;12.30;99.90;;;;;;5030400;28;20781;-81
2022/10/11 02:37:22;;;;;;;2.50;2.30;;;12.20;99.90;;;;;;5029217;28;20615;-81
2022/10/11 02:39:54;;;;;;;2.80;2.57;;;12.20;99.90;;;;;;5030234;28;20615;-81
2022/10/11 02:42:27;;;;;;;2.97;2.00;;;12.20;99.90;;;;;;5029997;28;20607;-81
2022/10/11 02:44:59;;;;;;;1.90;1.70;;;12.20;99.90;;;;;;5030354;28;20610;-81
2022/10/11 02:47:29;;;;;;;1.93;1.50;;;12.20;99.90;;;;;;5029265;28;20599;-81
2022/10/11 02:49:58;;;;;;;3.70;2.37;;;12.30;99.90;;;;;;5030013;28;20631;-81
2022/10/11 02:52:25;;;;;;;2.27;1.50;;;12.40;99.90;;;;;;5029819;28;20611;-82
2022/10/11 02:54:52;;;;;;;2.13;1.57;;;12.40;99.90;;;;;;5029573;28;20611;-81
2022/10/11 02:57:19;;;;;;;1.80;1.33;;;12.50;99.90;;;;;;5029179;28;20685;-81
2022/10/11 02:59:47;;;;;;;2.83;2.63;;;12.50;99.90;;;;;;5029667;28;21240;-81
2022/10/11 03:02:13;;;;;;;1.90;1.80;;;12.50;99.90;;;;;;5029807;28;20611;-81
2022/10/11 03:04:42;;;;;;;5.70;3.67;;;12.60;99.90;;;;;;5029080;28;20717;-81
2022/10/11 03:07:11;;;;;;;2.77;2.57;;;12.70;99.90;;;;;;5029111;28;20706;-81
2022/10/11 03:09:38;;;;;;;3.47;2.40;;;12.70;99.90;;;;;;5029330;28;20650;-81
2022/10/11 03:12:05;;;;;;;5.40;3.83;;;12.80;99.90;;;;;;5029813;28;20972;-81
2022/10/11 03:14:32;;;;;;;3.00;2.70;;;12.80;99.90;;;;;;5029288;28;20625;-81
2022/10/11 03:16:59;;;;;;;3.70;2.73;;;12.80;99.90;;;;;;5028450;28;20731;-81
2022/10/11 03:19:26;;;;;;;4.33;2.90;;;12.80;99.90;;;;;;5028791;28;20619;-82
2022/10/11 03:21:54;;;;;;;2.40;1.93;;;12.90;99.90;;;;;;5029173;28;20706;-81
2022/10/11 03:24:21;;;;;;;2.70;2.10;;;12.90;99.90;;;;;;5029112;28;20986;-81
2022/10/11 03:26:48;;;;;;;2.33;2.13;;;12.90;99.90;;;;;;5028544;28;20603;-81
2022/10/11 03:29:14;;;;;;;4.80;2.70;;;12.90;99.90;;;;;;5028990;28;20651;-81
2022/10/11 03:31:41;;;;;;;3.87;3.57;;;13.00;99.90;;;;;;5029124;28;20615;-81
2022/10/11 03:34:09;;;;;;;3.37;2.70;;;12.90;99.90;;;;;;5028415;28;20729;-82
2022/10/11 03:36:36;;;;;;;5.73;3.40;;;12.90;99.90;;;;;;5027904;28;20663;-81
2022/10/11 03:39:04;;;;;;;2.20;2.00;;;12.90;99.90;;;;;;5028386;28;20619;-81
2022/10/11 03:41:31;;;;;;;2.90;2.60;;;12.90;99.90;;;;;;5028786;28;20635;-81
2022/10/11 03:43:58;;;;;;;5.30;2.67;;;12.90;99.90;;;;;;5029285;28;20625;-81
2022/10/11 03:46:25;;;;;;;5.40;4.10;;;12.90;99.90;;;;;;5028971;28;20619;-81
2022/10/11 03:48:52;;;;;;;4.03;3.60;;;13.00;99.90;;;;;;5026922;28;20631;-81
2022/10/11 03:51:19;;;;;;;4.00;3.60;;;13.00;99.90;;;;;;5028864;28;20627;-81
2022/10/11 03:53:45;;;;;;;3.57;2.97;;;13.00;99.90;;;;;;5028671;28;20627;-81
2022/10/11 03:56:14;;;;;;;4.20;3.33;;;13.00;99.90;;;;;;5028898;28;20634;-80
2022/10/11 03:58:41;;;;;;;3.93;3.00;;;12.90;99.90;;;;;;5032056;28;20698;-81
2022/10/11 04:01:08;;;;;;;4.30;3.07;;;12.90;99.90;;;;;;5028217;28;20622;-81
2022/10/11 04:03:35;;;;;;;6.40;4.00;;;12.90;99.90;;;;;;5028775;28;20726;-80
2022/10/11 04:06:02;;;;;;;4.10;3.30;;;12.80;99.90;;;;;;5028473;28;20657;-80
2022/10/11 04:08:28;;;;;;;6.50;2.83;;;12.90;99.90;;;;;;5027901;28;20751;-81
2022/10/11 04:10:55;;;;;;;6.07;3.43;;;12.90;99.90;;;;;;5028174;28;20647;-80
2022/10/11 04:13:23;;;;;;;4.10;2.77;;;12.90;99.90;;;;;;5028430;28;20952;-81
2022/10/11 04:15:50;;;;;;;5.40;3.37;;;12.90;99.90;;;;;;5027891;28;20629;-81
2022/10/11 04:18:17;;;;;;;4.00;3.37;;;12.90;99.90;;;;;;5028081;28;20619;-80
2022/10/11 04:20:44;;;;;;;3.27;3.00;;;13.00;99.90;;;;;;5028277;28;21093;-80
2022/10/11 04:23:11;;;;;;;3.60;3.20;;;13.10;99.90;;;;;;5028281;28;20750;-80
2022/10/11 04:25:38;;;;;;;4.47;3.40;;;13.00;99.90;;;;;;5028014;28;20629;-80
2022/10/11 04:28:06;;;;;;;4.33;3.07;;;13.00;99.90;;;;;;5027571;28;20665;-81
2022/10/11 04:30:34;;;;;;;7.23;3.80;;;13.00;99.90;;;;;;5027961;28;20655;-81
2022/10/11 04:33:01;;;;;;;3.83;3.07;;;13.00;99.90;;;;;;5028495;28;20653;-81
2022/10/11 04:35:28;;;;;;;6.23;4.07;;;13.00;99.90;;;;;;5026758;28;20642;-81
2022/10/11 04:37:55;;;;;;;4.43;3.97;;;13.10;99.90;;;;;;5027436;28;20685;-80
2022/10/11 04:40:22;;;;;;;9.23;4.20;;;13.10;99.90;;;;;;5027871;28;20658;-81
2022/10/11 04:42:49;;;;;;;6.57;3.77;;;13.10;99.90;;;;;;5027736;28;20623;-81
2022/10/11 04:45:16;;;;;;;3.87;3.47;;;13.20;99.90;;;;;;5028174;28;20644;-80
2022/10/11 04:47:44;;;;;;;7.73;5.63;;;13.20;99.90;;;;;;5027250;28;20626;-81
2022/10/11 04:50:11;;;;;;;3.57;3.23;;;13.20;99.90;;;;;;5027639;28;20659;-81
2022/10/11 04:52:38;;;;;;;4.23;3.83;;;13.10;99.90;;;;;;5027766;28;20600;-81
2022/10/11 04:55:06;;;;;;;10.33;5.40;;;13.20;99.90;;;;;;5027890;28;20638;-81
2022/10/11 04:57:32;;;;;;;4.70;3.47;;;13.20;99.90;;;;;;5026778;28;20630;-80
2022/10/11 04:59:59;;;;;;;5.87;4.37;;;13.20;99.90;;;;;;5027673;28;20740;-81
2022/10/11 05:02:26;;;;;;;4.10;3.73;;;13.10;99.90;;;;;;5028119;28;20655;-81
2022/10/11 05:04:54;;;;;;;4.40;2.93;;;13.10;99.90;;;;;;5027386;28;20783;-83
2022/10/11 05:07:21;;;;;;;4.87;4.37;;;13.10;99.90;;;;;;5027288;28;20631;-80
2022/10/11 05:09:48;;;;;;;7.07;4.47;;;13.10;99.90;;;;;;5028453;28;20710;-81
2022/10/11 05:12:14;;;;;;;6.43;4.73;;;13.10;99.90;;;;;;5026761;28;21197;-81
2022/10/11 05:14:41;;;;;;;6.57;5.43;;;13.10;99.90;;;;;;5028217;28;20733;-81
2022/10/11 05:17:08;;;;;;;8.27;4.60;;;13.10;99.90;;;;;;5027244;28;20622;-81
2022/10/11 05:19:35;;;;;;;8.93;4.90;;;13.00;99.90;;;;;;5026894;28;21075;-81
2022/10/11 05:22:03;;;;;;;10.30;5.80;;;13.00;99.90;;;;;;5027475;28;20757;-80
2022/10/11 05:24:30;;;;;;;9.13;5.43;;;13.10;99.90;;;;;;5027151;28;20615;-81
2022/10/11 05:26:56;;;;;;;8.27;5.80;;;13.10;99.90;;;;;;5027279;28;20713;-81
2022/10/11 05:29:23;;;;;;;4.23;3.83;;;13.20;99.90;;;;;;5027737;28;20630;-81
2022/10/11 05:31:50;;;;;;;4.50;3.87;;;13.10;99.90;;;;;;5026078;28;20765;-80
2022/10/11 05:34:17;;;;;;;5.03;4.47;;;13.10;99.90;;;;;;5007854;28;20658;-81
2022/10/11 05:36:44;;;;;;;8.13;5.40;;;13.10;99.90;;;;;;5004916;28;20627;-81
2022/10/11 05:39:12;;;;;;;10.27;5.73;;;13.10;99.90;;;;;;5010164;28;20663;-81
2022/10/11 05:41:38;;;;;;;9.53;5.33;;;13.20;99.90;;;;;;5010365;28;20635;-81
2022/10/11 05:44:07;;;;;;;9.40;5.47;;;13.20;99.90;;;;;;5010931;28;20715;-81
2022/10/11 05:46:34;;;;;;;8.57;5.50;;;13.20;99.90;;;;;;5010555;28;20627;-81
2022/10/11 05:49:01;;;;;;;7.67;4.87;;;13.20;99.90;;;;;;5025085;28;20729;-81
2022/10/11 05:51:28;;;;;;;10.57;5.77;;;13.20;99.90;;;;;;5030100;28;21255;-81
2022/10/11 05:53:54;;;;;;;7.47;6.33;;;13.20;99.90;;;;;;5030854;28;20630;-81
2022/10/11 05:56:25;;;;;;;5.90;4.63;;;13.10;99.90;;;;;;5031525;28;20623;-80
2022/10/11 05:58:52;;;;;;;8.83;7.50;;;13.10;99.90;;;;;;5030621;28;20623;-81
2022/10/11 06:01:22;;;;;;;12.63;7.53;;;13.10;99.90;;;;;;5031099;28;20622;-81
2022/10/11 06:03:48;;;;;;;8.20;5.73;;;13.10;99.90;;;;;;5030745;28;20618;-81
2022/10/11 06:06:16;;;;;;;9.67;5.60;;;13.10;99.90;;;;;;5030265;28;20627;-81
2022/10/11 06:08:43;;;;;;;6.97;4.90;;;13.10;99.90;;;;;;5030051;28;20629;-81
2022/10/11 06:11:12;;;;;;;6.47;5.17;;;13.20;99.90;;;;;;5031048;28;20655;-81
2022/10/11 06:13:41;;;;;;;6.87;5.33;;;13.20;99.90;;;;;;5030605;28;20614;-81
2022/10/11 06:16:08;;;;;;;13.63;6.50;;;13.20;99.90;;;;;;5030754;28;20728;-81
2022/10/11 06:18:35;;;;;;;11.13;5.13;;;13.20;99.90;;;;;;5029966;28;20623;-81
2022/10/11 06:21:02;;;;;;;5.67;3.97;;;13.20;99.90;;;;;;5030494;28;20706;-81
2022/10/11 06:23:29;;;;;;;6.73;5.47;;;13.20;99.90;;;;;;5030640;28;21116;-80
2022/10/11 06:25:57;;;;;;;8.03;5.00;;;13.10;99.90;;;;;;5030674;28;20633;-81
2022/10/11 06:28:24;;;;;;;4.77;4.30;;;13.20;99.90;;;;;;5029816;28;20710;-81
2022/10/11 06:30:52;;;;;;;9.87;5.03;;;13.20;99.90;;;;;;5030268;28;21011;-81
2022/10/11 06:33:19;;;;;;;8.47;6.17;;;13.20;99.90;;;;;;5030210;28;20701;-81
2022/10/11 06:35:45;;;;;;;5.70;4.40;;;13.20;99.90;;;;;;5029106;28;20658;-81
2022/10/11 06:38:12;;;;;;;6.53;4.73;;;13.10;99.90;;;;;;5029779;28;20611;-81
2022/10/11 06:40:39;;;;;;;7.63;5.70;;;13.10;99.90;;;;;;5030052;28;20741;-81
2022/10/11 06:43:06;;;;;;;11.33;6.77;;;13.00;99.90;;;;;;5030703;28;20693;-81
2022/10/11 06:45:33;;;;;;;7.67;5.70;;;13.10;99.90;;;;;;5029930;28;20659;-81
2022/10/11 06:48:04;;;;;;;7.67;5.77;;;13.10;99.90;;;;;;5029474;28;20629;-81
2022/10/11 06:50:31;;;;;;;5.37;4.83;;;13.00;99.90;;;;;;5029507;28;20669;-81
2022/10/11 06:52:58;;;;;;;5.20;4.50;;;13.20;99.90;;;;;;5030036;28;20638;-80
2022/10/11 06:55:25;;;;;;;6.40;4.83;;;13.10;99.90;;;;;;5029968;28;20733;-80
2022/10/11 06:57:52;;;;;;;4.60;4.20;;;13.10;99.90;;;;;;5029626;28;20625;-81
2022/10/11 07:00:19;;;;;;;6.43;5.00;;;13.10;99.90;;;;;;5029487;28;20714;-81
2022/10/11 07:02:47;;;;;;;8.10;6.17;;;13.00;99.90;;;;;;5029657;28;21248;-80
2022/10/11 07:05:16;;;;;;;7.63;5.77;;;13.10;99.90;;;;;;5010194;28;20931;-81
2022/10/11 07:07:42;;;;;;;6.07;4.27;;;13.00;99.90;;;;;;5009219;28;20639;-81
2022/10/11 07:10:10;;;;;;;8.33;6.30;;;13.00;99.90;;;;;;5009886;28;20656;-80
2022/10/11 07:12:37;;;;;;;5.20;4.70;;;13.10;99.90;;;;;;5009906;28;20998;-81
2022/10/11 07:15:04;;;;;;;10.30;5.23;;;13.10;99.90;;;;;;5009402;28;20628;-81
2022/10/11 07:17:31;;;;;;;8.47;6.20;;;13.10;99.90;;;;;;5026556;28;20623;-81
2022/10/11 07:19:58;;;;;;;11.93;5.80;;;13.10;99.90;;;;;;5029819;28;20619;-80
2022/10/11 07:22:26;;;;;;;8.90;5.73;;;13.10;99.90;;;;;;5029477;28;21185;-80
2022/10/11 07:24:53;;;;;;;7.90;4.03;;;13.10;99.90;;;;;;5029204;28;20635;-81
2022/10/11 07:27:23;;;;;;;5.33;4.43;;;13.00;99.90;;;;;;5028766;28;20960;-80
2022/10/11 07:29:50;;;;;;;7.63;5.23;;;13.00;99.90;;;;;;5029499;28;20635;-81
2022/10/11 07:32:17;;;;;;;7.17;5.07;;;13.10;99.90;;;;;;5029404;28;20692;-80
2022/10/11 07:34:44;;;;;;;6.47;5.77;;;13.10;99.90;;;;;;5029008;28;21209;-80
2022/10/11 07:37:11;;;;;;;7.00;4.90;;;13.10;99.90;;;;;;5027220;28;20619;-80
2022/10/11 07:39:39;;;;;;;11.83;5.83;;;13.10;99.90;;;;;;5029210;28;20637;-80
2022/10/11 07:42:08;;;;;;;9.30;5.00;;;13.10;99.90;;;;;;5028732;28;20701;-80
2022/10/11 07:45:06;;;;;;;6.90;6.20;;;13.20;99.90;;;;;;4967647;28;20670;-79
2022/10/11 07:47:32;;;;;;;5.73;5.00;;;13.20;99.90;;;;;;5013842;28;20647;-80
2022/10/11 07:49:59;;;;;;;13.17;5.97;;;13.10;99.90;;;;;;5028947;28;20630;-80
2022/10/11 07:52:26;;;;;;;8.90;5.87;;;13.10;99.90;;;;;;5028666;28;20733;-80
2022/10/11 07:54:54;;;;;;;6.83;5.20;;;13.00;99.90;;;;;;5028638;28;21157;-79
2022/10/11 07:57:21;;;;;;;8.50;4.93;;;13.10;99.90;;;;;;5028647;28;20615;-80
2022/10/11 07:59:48;;;;;;;7.17;6.53;;;13.20;99.90;;;;;;5028629;28;20626;-80
2022/10/11 08:02:15;;;;;;;6.73;5.17;;;13.10;99.90;;;;;;5028091;28;20726;-80
2022/10/11 08:04:43;;;;;;;7.00;6.30;;;13.20;99.90;;;;;;5028356;28;20630;-80
2022/10/11 08:07:10;;;;;;;8.23;5.23;;;13.30;99.90;;;;;;5027934;28;20627;-80
2022/10/11 08:09:37;;;;;;;13.33;7.30;;;13.30;99.90;;;;;;5028526;28;20623;-80
2022/10/11 08:12:05;;;;;;;5.13;4.63;;;13.30;99.90;;;;;;5028759;28;20738;-80
2022/10/11 08:14:32;;;;;;;8.33;6.30;;;13.30;99.90;;;;;;5028395;28;20721;-80
2022/10/11 08:16:59;;;;;;;9.30;7.70;;;13.40;99.90;;;;;;5027834;28;20619;-81
2022/10/11 08:19:26;;;;;;;4.70;4.30;;;13.40;99.90;;;;;;5028476;28;20625;-80
2022/10/11 08:21:52;;;;;;;7.13;5.40;;;13.50;99.90;;;;;;5028402;28;20617;-79
2022/10/11 08:24:19;;;;;;;7.40;5.63;;;13.50;99.90;;;;;;5028755;28;20622;-79
2022/10/11 08:26:47;;;;;;;9.33;5.73;;;13.50;99.90;;;;;;5028162;28;20721;-79
2022/10/11 08:29:15;;;;;;;13.50;6.90;;;13.60;99.90;;;;;;5028321;28;20634;-80
2022/10/11 08:31:43;;;;;;;6.73;6.03;;;13.50;99.90;;;;;;5027838;28;21287;-79
2022/10/11 08:34:10;;;;;;;6.17;4.70;;;13.50;99.90;;;;;;5028180;28;20722;-80
2022/10/11 08:36:37;;;;;;;6.47;5.43;;;13.60;99.90;;;;;;5026336;28;21169;-80
2022/10/11 08:39:05;;;;;;;8.23;6.43;;;13.50;99.90;;;;;;5028238;28;20627;-81
2022/10/11 08:41:39;;;;;;;8.63;6.93;;;13.60;99.90;;;;;;5028019;28;20635;-81
2022/10/11 08:44:24;;;;;;;9.90;5.47;;;13.60;99.90;;;;;;5028150;28;20618;-80
2022/10/11 08:46:57;;;;;;;7.43;5.20;;;13.60;99.90;;;;;;5027126;28;21192;-80
2022/10/11 08:49:28;;;;;;;9.97;6.60;;;13.70;99.90;;;;;;5028173;28;20619;-80
2022/10/11 08:52:01;;;;;;;9.13;6.33;;;13.70;99.90;;;;;;5028080;28;20782;-80
2022/10/11 08:54:37;;;;;;;6.40;5.33;;;13.70;99.90;;;;;;5028114;28;20627;-79
2022/10/11 08:57:06;;;;;;;7.23;5.13;;;13.60;99.90;;;;;;5026834;28;20622;-80
2022/10/11 08:59:41;;;;;;;7.77;5.97;;;13.60;99.90;;;;;;5027913;28;21269;-80
2022/10/11 09:02:37;;;;;;;9.83;6.03;;;13.60;99.90;;;;;;5028044;28;20722;-80
2022/10/11 09:05:04;;;;;;;10.73;7.13;;;13.50;99.90;;;;;;5022899;28;20987;-81
2022/10/11 09:07:42;;;;;;;6.73;5.70;;;13.40;99.90;;;;;;5026691;28;20627;-80
2022/10/11 09:10:30;;;;;;;8.33;5.63;;;13.50;99.90;;;;;;5028137;28;20977;-79
2022/10/11 09:13:08;;;;;;;10.97;7.30;;;13.60;99.90;;;;;;5029914;28;20750;-80
2022/10/11 09:15:45;;;;;;;7.50;6.30;;;13.50;99.90;;;;;;5031906;28;20648;-81
2022/10/11 09:18:32;;;;;;;7.03;5.40;;;13.60;99.90;;;;;;5031393;28;20623;-81
2022/10/11 09:21:16;;;;;;;7.47;6.50;;;13.60;99.90;;;;;;5032059;28;20734;-80
2022/10/11 09:24:07;;;;;;;11.37;6.70;;;13.70;99.90;;;;;;5031613;28;20626;-80
2022/10/11 09:26:43;;;;;;;11.37;5.30;;;13.70;99.90;;;;;;5031708;28;20721;-79
2022/10/11 09:29:17;;;;;;;5.97;5.33;;;13.70;99.90;;;;;;5031910;28;20614;-81
2022/10/11 09:31:49;;;;;;;7.07;6.37;;;13.70;99.90;;;;;;5031679;28;20762;-81
2022/10/11 09:34:16;;;;;;;10.40;5.93;;;13.60;99.90;;;;;;5031533;28;20623;-80
2022/10/11 09:36:49;;;;;;;7.50;5.90;;;13.60;99.90;;;;;;5029774;28;20637;-79
2022/10/11 09:39:27;;;;;;;8.20;6.20;;;13.60;99.90;;;;;;5030829;28;21262;-79
2022/10/11 09:41:58;;;;;;;8.00;5.37;;;13.50;99.90;;;;;;5031257;28;20623;-80
2022/10/11 09:44:28;;;;;;;11.83;6.10;;;13.60;99.90;;;;;;5031431;28;20631;-80
2022/10/11 09:46:57;;;;;;;8.10;6.23;;;13.60;99.90;;;;;;5030699;28;20622;-80
2022/10/11 09:49:31;;;;;;;8.17;6.87;;;13.60;99.90;;;;;;5031028;28;20626;-80
2022/10/11 09:52:04;;;;;;;6.73;5.50;;;13.60;99.90;;;;;;5031292;28;20659;-79
2022/10/11 09:54:39;;;;;;;9.40;5.70;;;13.70;99.90;;;;;;5031199;28;20629;-79
2022/10/11 09:57:06;;;;;;;9.90;6.50;;;13.50;99.90;;;;;;5030392;28;20625;-80
2022/10/11 09:59:34;;;;;;;7.43;5.73;;;13.50;99.90;;;;;;5030651;28;20874;-80
2022/10/11 10:02:23;;;;;;;8.00;5.73;;;13.50;99.90;;;;;;5031155;28;20706;-79
2022/10/11 10:05:14;;;;;;;15.80;6.63;;;13.50;99.90;;;;;;5030876;28;20619;-80
2022/10/11 10:08:02;;;;;;;5.93;5.20;;;13.50;99.90;;;;;;5030260;28;20638;-80
2022/10/11 10:10:33;;;;;;;7.60;5.77;;;13.50;99.90;;;;;;5031024;28;20651;-80
2022/10/11 10:13:04;;;;;;;10.73;6.17;;;13.50;99.90;;;;;;5030713;28;21298;-79
2022/10/11 10:15:34;;;;;;;5.70;5.10;;;13.60;99.90;;;;;;5030789;28;20614;-80
2022/10/11 10:18:04;;;;;;;8.97;6.10;;;13.60;99.90;;;;;;5030064;28;20657;-79
2022/10/11 10:20:33;;;;;;;9.20;7.07;;;13.60;99.90;;;;;;5029627;28;20627;-82
2022/10/11 10:23:07;;;;;;;5.90;5.10;;;13.50;99.90;;;;;;5027026;28;20627;-80
2022/10/11 10:25:37;;;;;;;7.20;5.20;;;13.60;99.90;;;;;;5008557;28;21233;-81
2022/10/11 10:28:17;;;;;;;10.77;7.47;;;13.60;99.90;;;;;;5008902;28;20639;-79
2022/10/11 10:30:53;;;;;;;8.70;5.80;;;13.60;99.90;;;;;;5026464;28;21055;-79
2022/10/11 10:33:22;;;;;;;7.30;5.10;;;13.60;99.90;;;;;;5030126;28;20629;-81
2022/10/11 10:35:53;;;;;;;7.67;5.80;;;13.70;99.90;;;;;;5029142;28;20619;-79
2022/10/11 10:38:26;;;;;;;6.20;5.50;;;13.60;99.90;;;;;;5029364;28;20638;-80
2022/10/11 10:40:55;;;;;;;8.10;5.60;;;13.50;99.90;;;;;;5029847;28;20630;-80
2022/10/11 10:43:25;;;;;;;11.00;5.63;;;13.60;99.90;;;;;;5029848;28;21184;-79
2022/10/11 10:46:28;;;;;;;9.83;7.60;;;13.70;99.90;;;;;;5029814;28;20970;-80
2022/10/11 10:49:02;;;;;;;8.03;5.03;;;13.70;99.90;;;;;;5025719;28;21026;-81
2022/10/11 10:51:42;;;;;;;6.50;5.90;;;13.70;99.90;;;;;;5029822;28;21057;-80
2022/10/11 10:54:20;;;;;;;11.23;6.53;;;13.80;99.90;;;;;;5030013;28;20619;-81
2022/10/11 10:56:52;;;;;;;7.90;5.03;;;13.80;99.90;;;;;;5029482;28;20760;-80
2022/10/11 10:59:42;;;;;;;10.10;5.13;;;14.00;99.90;;;;;;5029474;28;20627;-80
2022/10/11 11:02:15;;;;;;;6.80;4.33;;;13.90;99.90;;;;;;5027105;28;20722;-80
2022/10/11 11:04:49;;;;;;;7.17;5.47;;;13.80;99.90;;;;;;5024880;28;21250;-80
2022/10/11 11:07:26;;;;;;;8.07;5.50;;;13.90;99.90;;;;;;5029541;28;20737;-80
2022/10/11 11:10:00;;;;;;;8.67;7.13;;;13.90;99.90;;;;;;5029665;28;21033;-80
2022/10/11 11:12:39;;;;;;;7.80;5.63;;;13.90;99.90;;;;;;5029957;28;20653;-79
2022/10/11 11:15:12;;;;;;;15.60;8.50;;;13.90;99.90;;;;;;5029674;28;20658;-79
2022/10/11 11:17:51;;;;;;;7.40;6.20;;;13.90;99.90;;;;;;5028856;28;20627;-80
2022/10/11 11:20:41;;;;;;;6.10;5.23;;;14.00;99.90;;;;;;5029930;28;20618;-80
2022/10/11 11:23:17;;;;;;;12.90;7.50;;;14.00;99.90;;;;;;5018435;28;20612;-79
2022/10/11 11:25:52;;;;;;;6.90;4.43;;;14.00;99.90;;;;;;5029432;28;20718;-82
2022/10/11 11:28:32;;;;;;;6.37;4.40;;;14.00;99.90;;;;;;5028874;28;20628;-81
2022/10/11 11:31:08;;;;;;;7.43;5.50;;;14.00;99.90;;;;;;5029280;28;20638;-80
2022/10/11 11:33:44;;;;;;;11.00;5.70;;;14.00;99.90;;;;;;5029070;28;20677;-79
2022/10/11 11:36:17;;;;;;;7.80;5.50;;;14.10;99.90;;;;;;5028166;28;20623;-80
2022/10/11 11:38:46;;;;;;;9.97;4.97;;;14.10;99.90;;;;;;5024620;28;20735;-83
2022/10/11 11:41:20;;;;;;;7.97;6.23;;;14.10;99.90;;;;;;5009432;28;21275;-80
2022/10/11 11:43:58;;;;;;;6.63;5.53;;;14.00;99.90;;;;;;5008924;28;20662;-82
2022/10/11 11:46:29;;;;;;;7.20;5.20;;;14.00;99.90;;;;;;5009694;28;20955;-80
2022/10/11 11:49:00;;;;;;;6.53;5.10;;;14.00;99.90;;;;;;5020384;28;21168;-81
2022/10/11 11:51:33;;;;;;;9.10;4.70;;;13.90;99.90;;;;;;5028851;28;20709;-79
2022/10/11 11:54:16;;;;;;;9.60;7.00;;;13.90;99.90;;;;;;5028976;28;21102;-83
2022/10/11 11:56:54;;;;;;;6.10;4.97;;;14.00;99.90;;;;;;5015675;28;20632;-79
2022/10/11 11:59:26;;;;;;;7.33;4.70;;;14.00;99.90;;;;;;5021422;28;21213;-81
2022/10/11 12:02:06;;;;;;;5.70;5.17;;;13.90;99.90;;;;;;5028816;28;20611;-80
2022/10/11 12:04:37;;;;;;;13.03;6.73;;;13.90;99.90;;;;;;5014131;28;21425;-81
2022/10/11 12:07:09;;;;;;;9.20;5.83;;;14.00;99.90;;;;;;5008700;28;20623;-82
2022/10/11 12:09:37;;;;;;;12.40;5.60;;;14.00;99.90;;;;;;5009030;28;20743;-82
2022/10/11 12:12:07;;;;;;;8.57;5.33;;;14.00;99.90;;;;;;5008671;28;20644;-83
2022/10/11 12:14:39;;;;;;;6.23;5.60;;;14.00;99.90;;;;;;5008367;28;20727;-83
2022/10/11 12:17:11;;;;;;;6.63;4.93;;;14.00;99.90;;;;;;5022300;28;20722;-81
2022/10/11 12:19:40;;;;;;;5.63;4.90;;;13.90;99.90;;;;;;5028622;28;20734;-81
2022/10/11 12:22:36;;;;;;;6.17;5.03;;;14.00;99.90;;;;;;5028634;28;20619;-82
2022/10/11 12:25:38;;;;;;;7.03;4.40;;;14.00;99.90;;;;;;5027669;28;20626;-82
2022/10/11 12:28:38;;;;;;;9.70;4.27;;;14.10;99.90;;;;;;5027790;28;21172;-82
2022/10/11 12:31:17;;;;;;;4.90;4.17;;;14.10;99.90;;;;;;5011779;28;21029;-81
2022/10/11 12:33:54;;;;;;;5.63;5.13;;;14.10;99.90;;;;;;5008349;28;21111;-82
2022/10/11 12:36:39;;;;;;;6.63;5.43;;;14.10;99.90;;;;;;5007478;28;20624;-82
2022/10/11 12:39:50;;;;;;;5.03;4.30;;;14.10;99.90;;;;;;5014424;28;20637;-81
2022/10/11 12:42:36;;;;;;;7.07;6.33;;;14.00;99.90;;;;;;5028130;28;20615;-83
2022/10/11 12:45:32;;;;;;;5.80;3.70;;;14.00;99.90;;;;;;5028032;28;20972;-81
2022/10/11 12:48:23;;;;;;;5.83;3.73;;;13.90;99.90;;;;;;5027003;28;20721;-82
2022/10/11 12:50:58;;;;;;;4.60;3.80;;;14.00;99.90;;;;;;5027981;28;20693;-82
2022/10/11 12:53:58;;;;;;;4.83;4.50;;;14.10;99.90;;;;;;5027926;28;20761;-82
2022/10/11 12:56:38;;;;;;;10.40;4.90;;;14.20;99.90;;;;;;5027987;28;20599;-81
2022/10/11 12:59:14;;;;;;;5.70;5.10;;;14.30;99.90;;;;;;5027083;28;20633;-83
2022/10/11 13:01:50;;;;;;;7.07;4.93;;;14.30;99.90;;;;;;5027878;28;20615;-82
2022/10/11 13:04:20;;;;;;;6.07;4.07;;;14.30;99.90;;;;;;5024604;28;20642;-83
2022/10/11 13:06:49;;;;;;;7.03;5.20;;;14.40;99.90;;;;;;5023092;28;21033;-83
2022/10/11 13:09:24;;;;;;;4.97;4.10;;;14.50;99.90;;;;;;5027223;28;20719;-82
2022/10/11 13:11:54;;;;;;;7.20;5.10;;;14.40;99.90;;;;;;5027338;28;20662;-82